createdAt,value
2023-09-10T00:00:38.030Z,25.32
2023-09-10T00:03:07.505Z,25.28
2023-09-10T00:05:35.497Z,25.03
2023-09-10T00:08:03.415Z,25.21
2023-09-10T00:10:31.821Z,25.04
2023-09-10T00:13:01.436Z,25.17
2023-09-10T00:15:29.161Z,25.12
2023-09-10T00:17:56.988Z,25.14
2023-09-10T00:20:28.212Z,25.10
2023-09-10T00:22:57.814Z,25.09
2023-09-10T00:25:25.878Z,25.06
2023-09-10T00:27:53.717Z,25.04
2023-09-10T00:30:21.682Z,25.01
2023-09-10T00:32:49.448Z,24.98
2023-09-10T00:35:17.456Z,24.96
2023-09-10T00:37:47.932Z,24.92
2023-09-10T00:40:15.724Z,24.77
2023-09-10T00:42:43.572Z,24.88
2023-09-10T00:45:13.420Z,24.68
2023-09-10T00:47:43.576Z,24.67
2023-09-10T00:50:12.151Z,24.83
2023-09-10T00:52:41.464Z,24.74
2023-09-10T00:55:10.694Z,24.70
2023-09-10T00:57:38.749Z,24.66
2023-09-10T01:00:15.475Z,24.60
2023-09-10T01:02:44.696Z,24.58
2023-09-10T01:05:13.458Z,24.55
2023-09-10T01:07:41.536Z,24.52
2023-09-10T01:10:11.333Z,24.52
2023-09-10T01:12:43.268Z,24.48
2023-09-10T01:15:14.511Z,24.29
2023-09-10T01:17:44.431Z,24.47
2023-09-10T01:20:21.753Z,24.46
2023-09-10T01:22:56.356Z,24.44
2023-09-10T01:25:25.623Z,24.15
2023-09-10T01:27:53.510Z,23.71
2023-09-10T01:30:21.570Z,22.88
2023-09-10T01:32:50.224Z,22.36
2023-09-10T01:35:21.027Z,22.28
2023-09-10T01:37:54.113Z,23.66
2023-09-10T01:40:23.867Z,21.96
2023-09-10T01:42:53.187Z,23.46
2023-09-10T01:45:21.135Z,24.24
2023-09-10T01:47:49.371Z,22.25
2023-09-10T01:50:17.737Z,24.24
2023-09-10T01:52:45.763Z,24.27
2023-09-10T01:55:14.642Z,22.57
2023-09-10T01:57:42.748Z,22.81
2023-09-10T02:00:13.576Z,23.21
2023-09-10T02:02:42.307Z,23.65
2023-09-10T02:05:10.483Z,23.89
2023-09-10T02:07:38.429Z,24.13
2023-09-10T02:10:07.550Z,23.40
2023-09-10T02:12:36.203Z,23.55
2023-09-10T02:15:04.973Z,24.11
2023-09-10T02:17:35.560Z,23.25
2023-09-10T02:20:06.770Z,23.32
2023-09-10T02:22:34.703Z,21.36
2023-09-10T02:25:04.324Z,24.10
2023-09-10T02:27:32.737Z,22.96
2023-09-10T02:30:00.607Z,24.10
2023-09-10T02:32:29.144Z,24.09
2023-09-10T02:34:58.854Z,23.16
2023-09-10T02:37:26.786Z,23.64
2023-09-10T02:39:55.094Z,22.67
2023-09-10T02:42:23.123Z,23.71
2023-09-10T02:44:51.137Z,23.53
2023-09-10T02:47:19.465Z,22.69
2023-09-10T02:49:47.691Z,22.32
2023-09-10T02:52:17.199Z,22.38
2023-09-10T02:54:45.449Z,23.63
2023-09-10T02:57:13.320Z,22.75
2023-09-10T02:59:41.363Z,22.16
2023-09-10T03:02:09.328Z,22.97
2023-09-10T03:04:37.524Z,22.34
2023-09-10T03:07:05.691Z,21.59
2023-09-10T03:09:35.201Z,22.27
2023-09-10T03:12:21.104Z,23.85
2023-09-10T03:14:49.144Z,22.38
2023-09-10T03:17:17.991Z,23.16
2023-09-10T03:19:45.983Z,23.49
2023-09-10T03:22:14.064Z,22.11
2023-09-10T03:24:46.874Z,22.80
2023-09-10T03:27:14.907Z,23.47
2023-09-10T03:29:43.927Z,23.74
2023-09-10T03:32:12.000Z,23.72
2023-09-10T03:34:40.700Z,21.83
2023-09-10T03:37:08.719Z,23.71
2023-09-10T03:39:37.667Z,22.30
2023-09-10T03:42:10.457Z,21.64
2023-09-10T03:44:38.820Z,21.83
2023-09-10T03:47:06.967Z,22.04
2023-09-10T03:49:35.589Z,23.57
2023-09-10T03:52:04.096Z,21.86
2023-09-10T03:54:32.021Z,23.14
2023-09-10T03:57:00.336Z,21.82
2023-09-10T03:59:30.952Z,23.49
2023-09-10T04:02:00.504Z,22.44
2023-09-10T04:04:30.151Z,21.79
2023-09-10T04:06:58.377Z,23.47
2023-09-10T04:09:26.415Z,23.01
2023-09-10T04:11:54.353Z,21.53
2023-09-10T04:14:24.152Z,21.80
2023-09-10T04:16:55.174Z,23.32
2023-09-10T04:19:24.105Z,22.39
2023-09-10T04:21:52.116Z,22.42
2023-09-10T04:24:20.532Z,22.44
2023-09-10T04:26:48.920Z,22.03
2023-09-10T04:29:16.879Z,22.89
2023-09-10T04:31:45.311Z,22.59
2023-09-10T04:34:14.876Z,22.20
2023-09-10T04:36:42.912Z,22.31
2023-09-10T04:39:10.998Z,21.07
2023-09-10T04:41:39.031Z,23.07
2023-09-10T04:44:07.584Z,22.26
2023-09-10T04:46:37.225Z,21.73
2023-09-10T04:49:05.564Z,21.93
2023-09-10T04:51:34.966Z,21.29
2023-09-10T04:54:02.996Z,23.04
2023-09-10T04:56:30.885Z,22.19
2023-09-10T04:58:59.001Z,23.08
2023-09-10T05:01:26.999Z,22.76
2023-09-10T05:03:55.092Z,21.19
2023-09-10T05:06:23.018Z,21.18
2023-09-10T05:08:52.298Z,21.01
2023-09-10T05:11:21.817Z,23.14
2023-09-10T05:13:49.971Z,22.11
2023-09-10T05:16:18.338Z,22.63
2023-09-10T05:18:46.435Z,21.05
2023-09-10T05:21:14.903Z,21.07
2023-09-10T05:23:43.267Z,22.39
2023-09-10T05:26:12.898Z,22.84
2023-09-10T05:28:42.455Z,22.77
2023-09-10T05:31:11.781Z,21.70
2023-09-10T05:33:40.016Z,22.46
2023-09-10T05:36:08.168Z,23.41
2023-09-10T05:38:37.580Z,21.80
2023-09-10T05:41:09.567Z,22.33
2023-09-10T05:43:38.980Z,22.98
2023-09-10T05:46:07.780Z,22.76
2023-09-10T05:48:35.898Z,21.80
2023-09-10T05:51:04.427Z,22.94
2023-09-10T05:53:32.558Z,22.80
2023-09-10T05:56:00.882Z,22.05
2023-09-10T05:58:29.158Z,22.07
2023-09-10T06:00:58.780Z,22.92
2023-09-10T06:03:29.787Z,21.92
2023-09-10T06:06:02.473Z,22.77
2023-09-10T06:08:32.211Z,23.92
2023-09-10T06:11:00.258Z,21.86
2023-09-10T06:13:29.652Z,23.73
2023-09-10T06:15:59.414Z,23.72
2023-09-10T06:18:27.912Z,23.13
2023-09-10T06:20:56.501Z,25.27
2023-09-10T06:23:26.209Z,23.99
2023-09-10T06:25:55.089Z,25.41
2023-09-10T06:28:25.335Z,24.50
2023-09-10T06:30:53.479Z,26.24
2023-09-10T06:33:23.354Z,26.35
2023-09-10T06:35:51.629Z,26.81
2023-09-10T06:38:20.007Z,27.22
2023-09-10T06:40:49.682Z,28.39
2023-09-10T06:43:17.631Z,27.77
2023-09-10T06:45:45.661Z,29.16
2023-09-10T06:48:13.694Z,29.45
2023-09-10T06:50:43.595Z,28.89
2023-09-10T06:53:12.411Z,28.63
2023-09-10T06:55:40.755Z,29.11
2023-09-10T06:58:08.778Z,29.64
2023-09-10T07:00:37.071Z,28.83
2023-09-10T07:03:13.152Z,30.80
2023-09-10T07:05:42.882Z,29.77
2023-09-10T07:08:12.303Z,31.64
2023-09-10T07:10:40.454Z,31.57
2023-09-10T07:13:08.922Z,32.33
2023-09-10T07:15:41.337Z,33.18
2023-09-10T07:18:09.256Z,31.82
2023-09-10T07:20:37.623Z,33.66
2023-09-10T07:23:07.125Z,32.33
2023-09-10T07:25:35.133Z,33.34
2023-09-10T07:28:03.009Z,33.77
2023-09-10T07:30:31.036Z,32.74
2023-09-10T07:32:59.050Z,33.99
2023-09-10T07:35:27.406Z,35.07
2023-09-10T07:37:56.127Z,35.15
2023-09-10T07:40:25.460Z,35.73
2023-09-10T07:42:53.698Z,36.11
2023-09-10T07:45:21.637Z,34.99
2023-09-10T07:47:49.736Z,35.94
2023-09-10T07:50:18.937Z,36.10
2023-09-10T07:52:47.015Z,38.08
2023-09-10T07:55:15.322Z,37.76
2023-09-10T07:57:45.079Z,36.45
2023-09-10T08:00:14.551Z,38.96
2023-09-10T08:02:42.794Z,38.83
2023-09-10T08:05:11.131Z,38.04
2023-09-10T08:07:39.289Z,38.48
2023-09-10T08:10:07.863Z,39.90
2023-09-10T08:12:35.749Z,39.47
2023-09-10T08:17:41.533Z,41.31
2023-09-10T08:20:10.076Z,41.74
2023-09-10T08:22:38.852Z,42.03
2023-09-10T08:25:09.421Z,42.59
2023-09-10T08:27:37.592Z,42.88
2023-09-10T08:30:07.131Z,43.01
2023-09-10T08:32:35.032Z,43.60
2023-09-10T08:35:05.140Z,43.76
2023-09-10T08:37:33.115Z,44.17
2023-09-10T08:40:01.261Z,44.58
2023-09-10T08:42:32.432Z,44.93
2023-09-10T08:45:03.195Z,45.41
2023-09-10T08:47:31.939Z,45.79
2023-09-10T08:50:03.598Z,46.13
2023-09-10T08:52:32.794Z,46.53
2023-09-10T08:55:00.827Z,46.79
2023-09-10T08:57:28.986Z,47.20
2023-09-10T08:59:56.767Z,47.47
2023-09-10T09:02:24.960Z,47.88
2023-09-10T09:04:52.891Z,48.20
2023-09-10T09:07:21.481Z,48.48
2023-09-10T09:09:52.282Z,48.91
2023-09-10T09:12:20.081Z,49.24
2023-09-10T09:14:48.357Z,49.51
2023-09-10T09:17:16.464Z,49.77
2023-09-10T09:19:45.019Z,50.00
2023-09-10T09:22:12.780Z,50.28
2023-09-10T09:24:41.722Z,50.56
2023-09-10T09:27:11.051Z,50.67
2023-09-10T09:29:40.319Z,51.18
2023-09-10T09:32:08.132Z,51.60
2023-09-10T09:34:35.905Z,51.91
2023-09-10T09:37:04.146Z,52.12
2023-09-10T09:39:32.488Z,52.65
2023-09-10T09:42:00.356Z,53.02
2023-09-10T09:44:29.940Z,53.37
2023-09-10T09:46:58.400Z,53.59
2023-09-10T09:49:26.868Z,53.94
2023-09-10T09:51:54.951Z,54.15
2023-09-10T09:54:22.772Z,54.35
2023-09-10T09:56:50.623Z,54.64
2023-09-10T09:59:18.421Z,54.78
2023-09-10T10:01:47.723Z,54.76
2023-09-10T10:04:17.104Z,55.01
2023-09-10T10:06:49.243Z,55.27
2023-09-10T10:09:20.222Z,55.58
2023-09-10T10:11:48.116Z,55.81
2023-09-10T10:14:16.001Z,56.02
2023-09-10T10:16:43.948Z,56.26
2023-09-10T10:19:13.204Z,56.49
2023-09-10T10:21:41.005Z,56.72
2023-09-10T10:24:09.568Z,56.94
2023-09-10T10:26:37.445Z,57.14
2023-09-10T10:29:05.378Z,57.35
2023-09-10T10:31:34.728Z,57.59
2023-09-10T10:34:05.299Z,57.86
2023-09-10T10:36:42.208Z,57.90
2023-09-10T10:39:10.749Z,57.92
2023-09-10T10:41:42.103Z,57.77
2023-09-10T10:44:17.043Z,58.10
2023-09-10T10:46:45.508Z,58.15
2023-09-10T10:49:13.796Z,58.21
2023-09-10T10:51:55.988Z,58.46
2023-09-10T10:54:25.117Z,58.85
2023-09-10T10:56:53.133Z,59.07
2023-09-10T10:59:21.027Z,59.32
2023-09-10T11:02:22.990Z,59.75
2023-09-10T11:04:58.317Z,59.92
2023-09-10T11:07:30.239Z,59.83
2023-09-10T11:09:58.788Z,59.95
2023-09-10T11:12:26.658Z,60.14
2023-09-10T11:15:13.671Z,60.10
2023-09-10T11:17:42.782Z,60.62
2023-09-10T11:20:10.868Z,60.87
2023-09-10T11:23:07.629Z,61.18
2023-09-10T11:25:35.780Z,61.37
2023-09-10T11:28:04.323Z,61.60
2023-09-10T11:30:32.183Z,61.81
2023-09-10T11:33:30.651Z,62.12
2023-09-10T11:35:59.673Z,61.89
2023-09-10T11:38:32.333Z,61.08
2023-09-10T11:41:01.051Z,60.82
2023-09-10T11:43:30.333Z,60.36
2023-09-10T11:45:58.872Z,60.02
2023-09-10T11:48:30.082Z,59.43
2023-09-10T11:51:00.165Z,58.91
2023-09-10T11:53:34.204Z,57.80
2023-09-10T11:56:02.742Z,56.82
2023-09-10T11:58:30.894Z,55.62
2023-09-10T12:00:58.976Z,54.25
2023-09-10T12:03:27.069Z,52.90
2023-09-10T12:05:55.299Z,51.78
2023-09-10T12:08:23.866Z,50.73
2023-09-10T12:10:57.351Z,49.37
2023-09-10T12:13:26.760Z,48.94
2023-09-10T12:15:54.866Z,47.63
2023-09-10T12:18:23.773Z,47.41
2023-09-10T12:20:51.973Z,46.73
2023-09-10T12:25:56.677Z,45.54
2023-09-10T12:28:24.909Z,45.06
2023-09-10T12:30:52.906Z,44.61
2023-09-10T12:33:22.356Z,44.22
2023-09-10T12:35:50.173Z,43.84
2023-09-10T12:38:18.048Z,43.36
2023-09-10T12:40:46.551Z,42.99
2023-09-10T12:43:19.409Z,42.72
2023-09-10T12:45:47.310Z,42.47
2023-09-10T12:48:15.394Z,42.30
2023-09-10T12:50:44.212Z,42.13
2023-09-10T12:53:12.116Z,41.98
2023-09-10T12:55:39.895Z,41.86
2023-09-10T12:58:08.756Z,41.72
2023-09-10T13:00:38.386Z,41.62
2023-09-10T13:03:07.011Z,41.41
2023-09-10T13:05:35.385Z,41.28
2023-09-10T13:08:03.635Z,41.15
2023-09-10T13:10:31.586Z,41.02
2023-09-10T13:12:59.433Z,40.91
2023-09-10T13:15:27.164Z,40.69
2023-09-10T13:17:56.464Z,40.50
2023-09-10T13:20:27.025Z,40.29
2023-09-10T13:22:55.068Z,40.11
2023-09-10T13:25:22.974Z,39.95
2023-09-10T13:27:51.072Z,39.78
2023-09-10T13:30:18.802Z,39.61
2023-09-10T13:32:46.806Z,39.57
2023-09-10T13:35:16.329Z,39.49
2023-09-10T13:37:44.105Z,39.46
2023-09-10T13:40:12.884Z,39.23
2023-09-10T13:42:40.765Z,39.31
2023-09-10T13:45:10.178Z,39.23
2023-09-10T13:47:37.976Z,39.12
2023-09-10T13:50:07.070Z,39.06
2023-09-10T13:52:36.216Z,39.07
2023-09-10T13:55:04.460Z,39.01
2023-09-10T13:57:32.301Z,38.97
2023-09-10T14:00:00.096Z,38.93
2023-09-10T14:02:27.943Z,38.85
2023-09-10T14:04:55.811Z,38.81
2023-09-10T14:07:23.540Z,38.73
2023-09-10T14:09:52.795Z,38.69
2023-09-10T14:12:21.819Z,38.68
2023-09-10T14:14:49.640Z,38.69
2023-09-10T14:17:17.498Z,38.70
2023-09-10T14:19:45.355Z,38.68
2023-09-10T14:27:32.297Z,38.69
2023-09-10T14:30:00.049Z,38.71
2023-09-10T14:32:27.979Z,38.69
2023-09-10T14:34:55.748Z,38.62
2023-09-10T14:37:23.505Z,38.38
2023-09-10T14:39:53.307Z,38.44
2023-09-10T14:42:21.099Z,38.38
2023-09-10T14:44:50.163Z,38.32
2023-09-10T14:47:17.899Z,38.29
2023-09-10T14:49:45.873Z,38.25
2023-09-10T14:52:13.596Z,38.18
2023-09-10T14:54:41.412Z,38.16
2023-09-10T14:57:09.237Z,38.16
2023-09-10T14:59:37.073Z,38.10
2023-09-10T15:02:06.277Z,38.09
2023-09-10T15:04:34.168Z,38.08
2023-09-10T15:07:01.871Z,37.97
2023-09-10T15:09:29.621Z,37.88
2023-09-10T15:11:57.433Z,37.83
2023-09-10T15:14:25.259Z,37.75
2023-09-10T15:16:53.039Z,37.72
2023-09-10T15:19:23.966Z,37.71
2023-09-10T15:21:51.674Z,37.68
2023-09-10T15:24:19.463Z,37.64
2023-09-10T15:26:47.172Z,37.60
2023-09-10T15:29:14.954Z,37.52
2023-09-10T15:31:42.728Z,37.48
2023-09-10T15:34:10.506Z,37.41
2023-09-10T15:36:42.500Z,37.37
2023-09-10T15:39:12.313Z,37.30
2023-09-10T15:41:43.423Z,37.25
2023-09-10T15:44:11.299Z,37.18
2023-09-10T15:46:39.399Z,37.14
2023-09-10T15:49:07.205Z,37.07
2023-09-10T15:51:34.932Z,37.01
2023-09-10T15:54:04.082Z,36.82
2023-09-10T15:56:31.902Z,36.82
2023-09-10T15:58:59.703Z,36.73
2023-09-10T16:01:27.915Z,36.66
2023-09-10T16:03:55.840Z,36.62
2023-09-10T16:06:23.623Z,36.57
2023-09-10T16:08:51.444Z,36.51
2023-09-10T16:11:20.644Z,36.45
2023-09-10T16:13:48.430Z,36.39
2023-09-10T16:16:16.216Z,36.33
2023-09-10T16:18:44.070Z,36.31
2023-09-10T16:21:11.812Z,36.24
2023-09-10T16:23:39.893Z,36.14
2023-09-10T16:26:07.848Z,36.09
2023-09-10T16:28:37.054Z,36.00
2023-09-10T16:31:04.919Z,35.94
2023-09-10T16:33:32.731Z,35.84
2023-09-10T16:36:00.580Z,35.78
2023-09-10T16:38:28.326Z,35.72
2023-09-10T16:40:56.375Z,35.65
2023-09-10T16:43:24.180Z,35.58
2023-09-10T16:45:54.553Z,35.49
2023-09-10T16:48:22.350Z,35.44
2023-09-10T16:50:50.361Z,35.38
2023-09-10T16:53:18.228Z,35.30
2023-09-10T16:55:51.909Z,35.22
2023-09-10T16:58:20.673Z,35.12
2023-09-10T17:00:48.577Z,34.57
2023-09-10T17:03:17.896Z,34.88
2023-09-10T17:05:46.048Z,34.73
2023-09-10T17:08:13.843Z,34.55
2023-09-10T17:10:42.247Z,34.37
2023-09-10T17:13:11.789Z,34.27
2023-09-10T17:15:39.653Z,33.99
2023-09-10T17:18:07.420Z,33.99
2023-09-10T17:20:36.784Z,33.80
2023-09-10T17:23:04.795Z,33.64
2023-09-10T17:25:32.631Z,33.55
2023-09-10T17:28:01.533Z,33.47
2023-09-10T17:30:29.277Z,33.42
2023-09-10T17:32:58.296Z,33.34
2023-09-10T17:35:26.249Z,33.27
2023-09-10T17:37:55.504Z,33.09
2023-09-10T17:40:23.634Z,33.05
2023-09-10T17:42:52.418Z,32.97
2023-09-10T17:45:21.866Z,32.93
2023-09-10T17:47:49.702Z,32.82
2023-09-10T17:50:17.527Z,32.72
2023-09-10T17:52:45.335Z,32.61
2023-09-10T17:55:14.432Z,32.33
2023-09-10T17:57:42.183Z,32.41
2023-09-10T18:00:10.881Z,32.34
2023-09-10T18:02:38.713Z,32.12
2023-09-10T18:05:07.426Z,32.18
2023-09-10T18:07:35.488Z,31.98
2023-09-10T18:10:03.643Z,31.99
2023-09-10T18:12:33.214Z,32.01
2023-09-10T18:15:00.964Z,31.97
2023-09-10T18:17:28.777Z,31.91
2023-09-10T18:19:56.543Z,31.82
2023-09-10T18:22:24.288Z,31.78
2023-09-10T18:24:52.014Z,31.72
2023-09-10T18:27:19.773Z,31.65
2023-09-10T18:29:48.994Z,31.57
2023-09-10T18:32:16.761Z,31.48
2023-09-10T18:34:44.517Z,31.38
2023-09-10T18:37:13.755Z,31.28
2023-09-10T18:39:41.552Z,31.21
2023-09-10T18:42:09.284Z,31.13
2023-09-10T18:44:38.114Z,31.01
2023-09-10T18:47:07.935Z,30.94
2023-09-10T18:49:35.742Z,30.87
2023-09-10T18:52:07.399Z,30.75
2023-09-10T18:54:35.167Z,30.77
2023-09-10T18:57:05.615Z,30.68
2023-09-10T18:59:34.340Z,30.60
2023-09-10T19:02:01.152Z,30.54
2023-09-10T19:04:30.254Z,30.49
2023-09-10T19:06:58.014Z,30.44
2023-09-10T19:09:25.855Z,30.43
2023-09-10T19:11:53.627Z,30.36
2023-09-10T19:14:21.485Z,30.33
2023-09-10T19:16:49.577Z,30.29
2023-09-10T19:19:17.310Z,30.16
2023-09-10T19:21:47.269Z,30.16
2023-09-10T19:24:15.138Z,30.12
2023-09-10T19:26:43.258Z,30.06
2023-09-10T19:29:11.197Z,30.04
2023-09-10T19:31:38.980Z,29.99
2023-09-10T19:34:07.370Z,29.93
2023-09-10T19:36:35.990Z,29.87
2023-09-10T19:39:07.261Z,29.83
2023-09-10T19:41:35.262Z,29.80
2023-09-10T19:44:03.032Z,29.76
2023-09-10T19:46:30.869Z,29.70
2023-09-10T19:48:58.709Z,29.65
2023-09-10T19:51:26.471Z,29.58
2023-09-10T19:53:54.366Z,29.57
2023-09-10T19:56:26.768Z,29.50
2023-09-10T19:59:05.411Z,29.51
2023-09-10T20:01:34.456Z,29.47
2023-09-10T20:04:02.181Z,29.44
2023-09-10T20:06:30.550Z,29.40
2023-09-10T20:08:58.331Z,28.88
2023-09-10T20:11:27.761Z,29.33
2023-09-10T20:13:56.043Z,29.30
2023-09-10T20:16:23.883Z,29.27
2023-09-10T20:18:52.160Z,29.23
2023-09-10T20:21:19.911Z,29.19
2023-09-10T20:23:47.837Z,29.11
2023-09-10T20:26:15.667Z,29.01
2023-09-10T20:28:44.817Z,28.96
2023-09-10T20:31:12.626Z,28.92
2023-09-10T20:36:08.877Z,28.80
2023-09-10T20:38:36.975Z,28.77
2023-09-10T20:41:07.845Z,28.76
2023-09-10T20:43:37.714Z,28.75
2023-09-10T20:46:07.096Z,28.71
2023-09-10T20:48:35.053Z,28.69
2023-09-10T20:51:04.177Z,28.65
2023-09-10T20:53:31.988Z,28.64
2023-09-10T20:55:59.791Z,28.61
2023-09-10T20:58:27.498Z,28.60
2023-09-10T21:00:55.340Z,28.59
2023-09-10T21:03:41.799Z,28.53
2023-09-10T21:06:10.215Z,28.52
2023-09-10T21:08:38.236Z,28.45
2023-09-10T21:11:06.226Z,28.43
2023-09-10T21:13:34.038Z,28.39
2023-09-10T21:16:02.263Z,28.38
2023-09-10T21:18:31.610Z,28.36
2023-09-10T21:20:59.675Z,28.30
2023-09-10T21:23:30.941Z,28.28
2023-09-10T21:25:58.699Z,28.23
2023-09-10T21:28:26.565Z,28.20
2023-09-10T21:30:54.325Z,28.17
2023-09-10T21:33:22.343Z,28.11
2023-09-10T21:35:52.947Z,28.05
2023-09-10T21:38:20.991Z,27.98
2023-09-10T21:40:48.883Z,27.94
2023-09-10T21:43:16.710Z,27.90
2023-09-10T21:45:44.443Z,27.88
2023-09-10T21:48:12.507Z,27.88
2023-09-10T21:50:40.349Z,27.83
2023-09-10T21:53:09.542Z,27.76
2023-09-10T21:55:37.295Z,27.68
2023-09-10T21:58:05.649Z,27.67
2023-09-10T22:00:33.403Z,27.65
2023-09-10T22:03:01.328Z,27.64
2023-09-10T22:05:29.284Z,27.63
2023-09-10T22:07:57.081Z,27.62
2023-09-10T22:10:26.438Z,27.60
2023-09-10T22:12:54.354Z,27.57
2023-09-10T22:15:22.263Z,27.55
2023-09-10T22:17:50.073Z,27.54
2023-09-10T22:20:17.909Z,27.51
2023-09-10T22:22:45.792Z,27.42
2023-09-10T22:25:17.279Z,27.40
2023-09-10T22:27:46.739Z,27.35
2023-09-10T22:30:15.233Z,27.35
2023-09-10T22:32:43.137Z,27.29
2023-09-10T22:35:11.030Z,27.27
2023-09-10T22:37:38.742Z,27.25
2023-09-10T22:40:07.668Z,27.24
2023-09-10T22:42:35.570Z,27.17
2023-09-10T22:45:05.207Z,27.16
2023-09-10T22:47:33.100Z,27.15
2023-09-10T22:50:00.844Z,27.12
2023-09-10T22:52:28.639Z,27.00
2023-09-10T22:54:56.321Z,27.06
2023-09-10T22:57:24.133Z,27.02
2023-09-10T22:59:51.964Z,26.97
2023-09-10T23:02:21.260Z,26.95
2023-09-10T23:04:51.236Z,26.94
2023-09-10T23:07:19.158Z,26.93
2023-09-10T23:09:46.887Z,26.92
2023-09-10T23:12:15.695Z,26.88
2023-09-10T23:14:43.542Z,26.85
2023-09-10T23:17:13.344Z,26.83
2023-09-10T23:19:42.469Z,26.75
2023-09-10T23:22:10.316Z,26.77
2023-09-10T23:24:38.056Z,26.73
2023-09-10T23:27:06.561Z,26.70
2023-09-10T23:29:36.059Z,26.69
2023-09-10T23:32:03.942Z,26.65
2023-09-10T23:34:34.259Z,26.61
2023-09-10T23:37:03.409Z,26.58
2023-09-10T23:39:31.136Z,26.57
2023-09-10T23:41:58.994Z,26.55
2023-09-10T23:44:26.763Z,26.53
2023-09-10T23:46:54.699Z,26.47
2023-09-10T23:49:22.474Z,26.49
2023-09-10T23:51:50.569Z,26.47
2023-09-10T23:54:19.729Z,26.40
2023-09-10T23:56:47.664Z,26.40
2023-09-10T23:59:15.437Z,26.38
